Time;durP1;ratioP1;P1;durP2;ratioP2;P2;SDS_P1;SDS_P2;PMS_P1;PMS_P2;Temp;Humidity;BMP_temperature;BMP_pressure;BME280_temperature;BME280_humidity;BME280_pressure;Samples;Min_cycle;Max_cycle;Signal;HPM_P1;HPM_P2
2022/04/25 00:01:54;;;;;;;;;;;23.70;38.20;;;;;;4925880;29;19977;-65
2022/04/25 00:04:21;;;;;;;;;;;23.60;38.20;;;;;;4924847;28;19926;-65
2022/04/25 00:06:48;;;;;;;;;;;23.60;38.20;;;;;;4926597;29;20387;-65
2022/04/25 00:09:15;;;;;;;;;;;23.70;38.20;;;;;;4926295;29;20370;-65
2022/04/25 00:11:42;;;;;;;;;;;23.60;38.20;;;;;;4925860;29;20030;-65
2022/04/25 00:14:09;;;;;;;;;;;23.60;38.20;;;;;;4926095;28;20001;-65
2022/04/25 00:16:36;;;;;;;;;;;23.70;38.30;;;;;;4925822;29;20021;-65
2022/04/25 00:19:03;;;;;;;;;;;23.60;38.20;;;;;;4926079;29;20289;-65
2022/04/25 00:21:30;;;;;;;;;;;23.60;38.20;;;;;;4923722;28;19928;-65
2022/04/25 00:23:57;;;;;;;;;;;23.60;38.20;;;;;;4924165;29;20025;-65
2022/04/25 00:26:25;;;;;;;;;;;23.60;38.20;;;;;;4926157;29;20219;-65
2022/04/25 00:28:52;;;;;;;;;;;23.60;38.20;;;;;;4925288;29;20422;-65
2022/04/25 00:31:19;;;;;;;;;;;23.60;38.30;;;;;;4926074;29;19989;-65
2022/04/25 00:33:46;;;;;;;;;;;23.60;38.30;;;;;;4925464;29;20358;-65
2022/04/25 00:36:13;;;;;;;;;;;23.60;38.40;;;;;;4925497;29;19966;-65
2022/04/25 00:38:40;;;;;;;;;;;23.60;38.40;;;;;;4925733;28;20022;-65
2022/04/25 00:41:07;;;;;;;;;;;23.50;38.40;;;;;;4924788;29;20025;-65
2022/04/25 00:43:34;;;;;;;;;;;23.50;38.40;;;;;;4926010;29;20338;-65
2022/04/25 00:46:01;;;;;;;;;;;23.60;38.50;;;;;;4925510;28;19931;-65
2022/04/25 00:48:28;;;;;;;;;;;23.50;38.40;;;;;;4925873;29;19946;-65
2022/04/25 00:50:55;;;;;;;;;;;23.60;38.70;;;;;;4925330;29;19973;-65
2022/04/25 00:53:22;;;;;;;;;;;23.60;38.40;;;;;;4921189;29;19957;-65
2022/04/25 00:55:49;;;;;;;;;;;23.60;38.40;;;;;;4925266;29;19974;-65
2022/04/25 00:58:17;;;;;;;;;;;23.60;38.40;;;;;;4925446;29;19927;-65
2022/04/25 01:00:44;;;;;;;;;;;23.60;38.40;;;;;;4925648;29;20359;-65
2022/04/25 01:03:13;;;;;;;;;;;23.60;38.40;;;;;;4925626;29;20298;-65
2022/04/25 01:05:40;;;;;;;;;;;23.60;38.40;;;;;;4925568;29;20399;-65
2022/04/25 01:08:07;;;;;;;;;;;23.60;38.40;;;;;;4925324;29;19982;-65
2022/04/25 01:10:34;;;;;;;;;;;23.60;38.40;;;;;;4925201;29;20026;-65
2022/04/25 01:13:01;;;;;;;;;;;23.60;38.40;;;;;;4924854;29;20022;-65
2022/04/25 01:15:30;;;;;;;;;;;23.60;38.40;;;;;;4926239;28;19931;-65
2022/04/25 01:17:57;;;;;;;;;;;23.60;38.40;;;;;;4928291;29;20330;-65
2022/04/25 01:20:24;;;;;;;;;;;23.50;38.30;;;;;;4929030;28;20591;-64
2022/04/25 01:22:56;;;;;;;;;;;23.60;38.40;;;;;;4928755;29;19926;-65
2022/04/25 01:28:10;;;;;;;;;;;23.60;38.40;;;;;;4928145;29;20014;-65
2022/04/25 01:30:37;;;;;;;;;;;23.60;38.40;;;;;;4928010;29;19927;-65
2022/04/25 01:33:04;;;;;;;;;;;23.60;38.30;;;;;;4927989;29;19977;-65
2022/04/25 01:35:31;;;;;;;;;;;23.60;38.40;;;;;;4928199;29;19926;-65
2022/04/25 01:37:58;;;;;;;;;;;23.50;38.30;;;;;;4928525;28;20438;-65
2022/04/25 01:40:25;;;;;;;;;;;23.60;38.30;;;;;;4928436;29;19974;-65
2022/04/25 01:42:52;;;;;;;;;;;23.60;38.40;;;;;;4928209;29;19933;-65
2022/04/25 01:45:20;;;;;;;;;;;23.50;38.40;;;;;;4928403;29;19953;-65
2022/04/25 01:47:47;;;;;;;;;;;23.50;38.40;;;;;;4927916;29;19927;-65
2022/04/25 01:50:14;;;;;;;;;;;23.50;38.40;;;;;;4928551;28;19927;-65
2022/04/25 01:52:41;;;;;;;;;;;23.50;38.40;;;;;;4927923;29;19927;-65
2022/04/25 01:55:08;;;;;;;;;;;23.50;38.40;;;;;;4926707;29;19935;-64
2022/04/25 01:57:35;;;;;;;;;;;23.50;38.40;;;;;;4924353;29;19978;-64
2022/04/25 02:00:02;;;;;;;;;;;23.50;38.50;;;;;;4927664;29;20386;-64
2022/04/25 02:02:29;;;;;;;;;;;23.50;38.50;;;;;;4926835;29;19927;-64
2022/04/25 02:04:56;;;;;;;;;;;23.50;38.50;;;;;;4927698;29;20388;-65
2022/04/25 02:07:23;;;;;;;;;;;23.50;38.50;;;;;;4927897;29;19937;-65
2022/04/25 02:09:50;;;;;;;;;;;23.50;38.50;;;;;;4927606;29;20273;-65
2022/04/25 02:12:17;;;;;;;;;;;23.50;38.50;;;;;;4927940;29;20437;-65
2022/04/25 02:14:46;;;;;;;;;;;23.50;38.40;;;;;;4928071;29;20157;-65
2022/04/25 02:17:13;;;;;;;;;;;23.50;38.40;;;;;;4927609;28;19927;-65
2022/04/25 02:19:41;;;;;;;;;;;23.50;38.40;;;;;;4927144;29;19977;-65
2022/04/25 02:22:09;;;;;;;;;;;23.50;38.40;;;;;;4926493;29;20087;-65
2022/04/25 02:24:37;;;;;;;;;;;23.50;38.40;;;;;;4927171;28;20012;-65
2022/04/25 02:27:05;;;;;;;;;;;23.50;38.40;;;;;;4922783;29;19970;-65
2022/04/25 02:29:32;;;;;;;;;;;23.50;38.40;;;;;;4927593;29;20010;-64
2022/04/25 02:32:00;;;;;;;;;;;23.50;38.40;;;;;;4927643;29;20021;-65
2022/04/25 02:34:29;;;;;;;;;;;23.50;38.40;;;;;;4926773;28;20452;-64
2022/04/25 02:36:57;;;;;;;;;;;23.50;38.40;;;;;;4927445;29;19931;-65
2022/04/25 02:39:24;;;;;;;;;;;23.50;38.40;;;;;;4927798;28;20341;-64
2022/04/25 02:41:51;;;;;;;;;;;23.50;38.40;;;;;;4927853;28;19973;-64
2022/04/25 02:44:18;;;;;;;;;;;23.50;38.40;;;;;;4927034;28;20446;-65
2022/04/25 02:46:45;;;;;;;;;;;23.50;38.40;;;;;;4927389;29;20021;-65
2022/04/25 02:49:12;;;;;;;;;;;23.40;38.40;;;;;;4926943;29;19933;-65
2022/04/25 02:51:39;;;;;;;;;;;23.50;38.40;;;;;;4927017;28;19973;-65
2022/04/25 02:54:06;;;;;;;;;;;23.50;38.40;;;;;;4925841;28;19984;-65
2022/04/25 02:56:33;;;;;;;;;;;23.50;38.40;;;;;;4927256;29;20026;-65
2022/04/25 02:59:00;;;;;;;;;;;23.50;38.50;;;;;;4922576;29;19931;-65
2022/04/25 03:01:27;;;;;;;;;;;23.40;38.40;;;;;;4926640;29;20337;-64
2022/04/25 03:03:55;;;;;;;;;;;23.50;38.50;;;;;;4926819;29;19933;-64
2022/04/25 03:06:22;;;;;;;;;;;23.40;38.50;;;;;;4926638;29;19927;-65
2022/04/25 03:08:49;;;;;;;;;;;23.40;38.50;;;;;;4926525;29;20363;-65
2022/04/25 03:11:15;;;;;;;;;;;23.40;38.60;;;;;;4926489;28;19972;-64
2022/04/25 03:13:43;;;;;;;;;;;23.40;39.10;;;;;;4927001;29;20334;-65
2022/04/25 03:16:10;;;;;;;;;;;23.40;38.60;;;;;;4926894;29;19973;-64
2022/04/25 03:18:37;;;;;;;;;;;23.40;38.60;;;;;;4926622;29;19930;-65
2022/04/25 03:21:06;;;;;;;;;;;23.40;38.60;;;;;;4926503;29;20376;-65
2022/04/25 03:23:36;;;;;;;;;;;23.40;38.60;;;;;;4926788;29;19927;-64
2022/04/25 03:26:04;;;;;;;;;;;23.40;38.60;;;;;;4926233;29;19949;-65
2022/04/25 03:28:31;;;;;;;;;;;23.40;38.60;;;;;;4926564;28;19974;-65
2022/04/25 03:30:58;;;;;;;;;;;23.40;38.50;;;;;;4922037;29;20017;-65
2022/04/25 03:33:31;;;;;;;;;;;23.40;38.50;;;;;;4926632;29;19931;-65
2022/04/25 03:35:58;;;;;;;;;;;23.40;38.50;;;;;;4926173;29;19978;-64
2022/04/25 03:38:26;;;;;;;;;;;23.40;38.50;;;;;;4925726;29;20396;-65
2022/04/25 03:40:54;;;;;;;;;;;23.40;38.50;;;;;;4942188;28;20042;-65
2022/04/25 03:43:23;;;;;;;;;;;23.40;38.40;;;;;;4963564;28;20131;-65
2022/04/25 03:45:50;;;;;;;;;;;23.40;38.50;;;;;;4944575;28;20365;-65
2022/04/25 03:48:17;;;;;;;;;;;23.50;39.10;;;;;;4934268;29;20492;-65
2022/04/25 03:50:44;;;;;;;;;;;23.40;38.40;;;;;;4930966;28;20410;-65
2022/04/25 03:53:12;;;;;;;;;;;23.40;38.40;;;;;;4926537;28;20021;-65
2022/04/25 03:58:25;;;;;;;;;;;23.40;38.40;;;;;;4937193;29;19926;-65
2022/04/25 04:00:52;;;;;;;;;;;23.40;38.40;;;;;;4944269;28;20307;-64
2022/04/25 04:03:19;;;;;;;;;;;23.40;38.40;;;;;;4940794;28;19973;-65
2022/04/25 04:05:47;;;;;;;;;;;23.40;38.40;;;;;;4945168;28;19969;-64
2022/04/25 04:08:14;;;;;;;;;;;23.50;38.40;;;;;;4945458;28;20295;-65
2022/04/25 04:10:41;;;;;;;;;;;23.40;38.40;;;;;;4940304;29;20387;-65
2022/04/25 04:13:08;;;;;;;;;;;23.50;38.40;;;;;;4935101;29;20018;-65
2022/04/25 04:15:36;;;;;;;;;;;23.40;38.40;;;;;;4933581;28;19973;-65
2022/04/25 04:18:07;;;;;;;;;;;23.40;38.40;;;;;;4936211;29;19974;-65
2022/04/25 04:20:34;;;;;;;;;;;23.40;38.50;;;;;;4944435;29;20286;-64
2022/04/25 04:23:01;;;;;;;;;;;23.40;38.50;;;;;;4927486;28;19981;-65
2022/04/25 04:25:28;;;;;;;;;;;23.40;38.50;;;;;;4945225;28;19926;-64
2022/04/25 04:27:55;;;;;;;;;;;23.40;38.50;;;;;;4944762;28;20378;-64
2022/04/25 04:30:22;;;;;;;;;;;23.40;38.50;;;;;;4944800;28;19977;-65
2022/04/25 04:32:51;;;;;;;;;;;23.40;39.00;;;;;;4941961;29;19927;-64
2022/04/25 04:36:17;;;;;;;;;;;23.50;38.50;;;;;;4944056;28;19926;-64
2022/04/25 04:38:05;;;;;;;;;;;23.50;38.40;;;;;;4942729;28;20021;-64
2022/04/25 04:40:33;;;;;;;;;;;23.50;38.40;;;;;;4942807;28;19930;-65
2022/04/25 04:43:00;;;;;;;;;;;23.50;38.30;;;;;;4944286;29;19941;-64
2022/04/25 04:45:27;;;;;;;;;;;23.50;38.30;;;;;;4938431;29;20429;-65
2022/04/25 04:47:55;;;;;;;;;;;23.50;38.20;;;;;;4933596;29;19931;-65
2022/04/25 04:50:22;;;;;;;;;;;23.60;38.20;;;;;;4940331;28;20242;-65
2022/04/25 04:52:50;;;;;;;;;;;23.60;38.20;;;;;;4934011;28;20366;-65
2022/04/25 04:55:17;;;;;;;;;;;23.60;38.10;;;;;;4937462;29;20258;-65
2022/04/25 04:57:44;;;;;;;;;;;23.70;38.10;;;;;;4947128;28;19974;-65
2022/04/25 05:00:13;;;;;;;;;;;23.60;38.00;;;;;;4944734;28;19935;-65
2022/04/25 05:02:41;;;;;;;;;;;23.70;38.10;;;;;;4933725;28;19927;-65
2022/04/25 05:05:08;;;;;;;;;;;23.70;38.00;;;;;;4935647;28;19933;-65
2022/04/25 05:07:35;;;;;;;;;;;23.70;38.00;;;;;;4946023;28;19968;-65
2022/04/25 05:10:03;;;;;;;;;;;23.70;37.80;;;;;;4957802;28;20014;-65
2022/04/25 05:12:30;;;;;;;;;;;23.70;37.80;;;;;;4945257;28;19973;-65
2022/04/25 05:14:58;;;;;;;;;;;23.70;37.70;;;;;;4935352;28;20078;-65
2022/04/25 05:17:24;;;;;;;;;;;23.70;37.60;;;;;;4931980;28;20038;-65
2022/04/25 05:19:51;;;;;;;;;;;23.80;37.60;;;;;;4939333;28;19973;-65
2022/04/25 05:22:18;;;;;;;;;;;23.80;37.50;;;;;;4936309;29;19930;-67
2022/04/25 05:24:45;;;;;;;;;;;23.80;37.40;;;;;;4933792;28;19935;-67
2022/04/25 05:27:12;;;;;;;;;;;23.80;37.30;;;;;;4930016;29;20052;-66
2022/04/25 05:29:39;;;;;;;;;;;23.80;37.30;;;;;;4936593;28;20387;-67
2022/04/25 05:32:07;;;;;;;;;;;23.90;37.30;;;;;;4939602;28;19938;-66
2022/04/25 05:34:37;;;;;;;;;;;23.90;37.30;;;;;;4937178;28;19930;-66
2022/04/25 05:37:04;;;;;;;;;;;23.90;37.60;;;;;;4932220;28;19981;-67
2022/04/25 05:39:32;;;;;;;;;;;23.90;37.70;;;;;;4933572;28;19935;-69
2022/04/25 05:42:03;;;;;;;;;;;23.90;37.80;;;;;;4940263;28;20006;-68
2022/04/25 05:44:30;;;;;;;;;;;23.90;37.80;;;;;;4925742;28;20047;-68
2022/04/25 05:46:57;;;;;;;;;;;24.00;37.60;;;;;;4925911;28;19934;-71
2022/04/25 05:52:12;;;;;;;;;;;24.00;37.40;;;;;;4930767;28;20017;-71
2022/04/25 05:54:46;;;;;;;;;;;24.00;37.40;;;;;;4924059;28;20056;-69
2022/04/25 05:57:13;;;;;;;;;;;24.00;37.30;;;;;;4926878;28;19985;-65
2022/04/25 05:59:41;;;;;;;;;;;24.00;37.40;;;;;;4931742;28;20005;-67
2022/04/25 06:02:08;;;;;;;;;;;24.00;37.40;;;;;;4934221;28;20390;-65
2022/04/25 06:04:35;;;;;;;;;;;24.00;37.50;;;;;;4935843;29;21287;-70
2022/04/25 06:07:04;;;;;;;;;;;24.00;37.70;;;;;;4929333;28;19933;-72
2022/04/25 06:09:31;;;;;;;;;;;24.00;37.80;;;;;;4932464;28;19934;-69
2022/04/25 06:11:58;;;;;;;;;;;24.00;37.90;;;;;;4933073;28;19935;-68
2022/04/25 06:14:27;;;;;;;;;;;24.10;37.90;;;;;;4934145;28;20398;-68
2022/04/25 06:16:54;;;;;;;;;;;24.10;37.60;;;;;;4929749;28;20969;-67
2022/04/25 06:19:21;;;;;;;;;;;24.10;37.80;;;;;;4928383;28;20378;-68
2022/04/25 06:21:48;;;;;;;;;;;24.10;37.50;;;;;;4932905;28;20439;-71
2022/04/25 06:24:16;;;;;;;;;;;24.10;37.40;;;;;;4932387;28;20035;-68
2022/04/25 06:26:43;;;;;;;;;;;24.10;37.30;;;;;;4927444;28;20049;-65
2022/04/25 06:29:10;;;;;;;;;;;24.20;37.30;;;;;;4929286;28;20025;-66
2022/04/25 06:31:37;;;;;;;;;;;24.20;37.20;;;;;;4924806;28;19958;-73
2022/04/25 06:34:04;;;;;;;;;;;24.20;37.20;;;;;;4930476;28;19934;-74
2022/04/25 06:36:32;;;;;;;;;;;24.20;37.10;;;;;;4927527;28;20383;-73
2022/04/25 06:39:02;;;;;;;;;;;24.30;37.10;;;;;;4923647;28;20378;-70
2022/04/25 06:41:30;;;;;;;;;;;24.30;37.20;;;;;;4929947;28;19934;-75
2022/04/25 06:43:58;;;;;;;;;;;24.30;37.10;;;;;;4935311;28;20275;-72
2022/04/25 06:46:25;;;;;;;;;;;24.40;37.10;;;;;;4942590;28;19984;-78
2022/04/25 06:49:38;;;;;;;;;;;24.30;36.90;;;;;;4939894;28;19930;-70
2022/04/25 06:51:40;;;;;;;;;;;24.40;36.90;;;;;;4934552;28;20021;-61
2022/04/25 06:54:07;;;;;;;;;;;24.40;36.80;;;;;;4930884;28;19926;-70
2022/04/25 06:56:35;;;;;;;;;;;24.40;36.90;;;;;;4932320;28;20020;-66
2022/04/25 06:59:02;;;;;;;;;;;24.50;36.70;;;;;;4931319;28;20025;-67
2022/04/25 07:01:29;;;;;;;;;;;24.50;36.10;;;;;;4933362;28;20346;-70
2022/04/25 07:03:56;;;;;;;;;;;24.40;35.90;;;;;;4932768;28;19935;-71
2022/04/25 07:06:23;;;;;;;;;;;24.40;36.30;;;;;;4938858;28;19977;-72
2022/04/25 07:08:50;;;;;;;;;;;24.40;36.40;;;;;;4932853;28;20017;-72
2022/04/25 07:11:17;;;;;;;;;;;24.40;35.80;;;;;;4928140;28;20008;-67
2022/04/25 07:13:45;;;;;;;;;;;24.40;36.30;;;;;;4935155;28;20408;-69
2022/04/25 07:16:12;;;;;;;;;;;24.40;36.50;;;;;;4931155;28;20028;-67
2022/04/25 07:18:39;;;;;;;;;;;24.40;36.50;;;;;;4934508;28;19934;-69
2022/04/25 07:30:16;;;;;;;;;;;24.50;36.80;;;;;;4931350;28;20416;-73
2022/04/25 07:32:43;;;;;;;;;;;24.50;37.00;;;;;;4931877;28;20438;-73
2022/04/25 07:35:11;;;;;;;;;;;24.60;37.10;;;;;;4937172;28;19969;-70
2022/04/25 07:37:38;;;;;;;;;;;24.60;36.60;;;;;;4934539;28;20026;-70
2022/04/25 07:40:08;;;;;;;;;;;24.60;36.70;;;;;;4933127;28;19932;-71
2022/04/25 07:42:36;;;;;;;;;;;24.60;36.90;;;;;;4908440;28;19933;-66
2022/04/25 07:45:03;;;;;;;;;;;24.60;36.90;;;;;;4936550;28;20025;-71
2022/04/25 07:47:32;;;;;;;;;;;24.70;36.80;;;;;;4940226;28;19927;-72
2022/04/25 07:50:00;;;;;;;;;;;24.70;36.70;;;;;;4940653;28;20307;-73
2022/04/25 07:52:27;;;;;;;;;;;24.70;36.70;;;;;;4937803;28;19930;-71
2022/04/25 07:54:56;;;;;;;;;;;24.70;36.80;;;;;;4939414;28;22201;-72
2022/04/25 07:57:24;;;;;;;;;;;24.80;36.50;;;;;;4946354;28;19996;-78
2022/04/25 07:59:51;;;;;;;;;;;24.80;35.90;;;;;;4939421;28;20354;-72
2022/04/25 08:02:19;;;;;;;;;;;24.80;36.60;;;;;;4934147;28;20355;-74
2022/04/25 08:04:46;;;;;;;;;;;24.80;36.70;;;;;;4937140;28;19934;-76
2022/04/25 08:07:14;;;;;;;;;;;24.90;36.90;;;;;;4934227;28;19989;-76
2022/04/25 08:09:42;;;;;;;;;;;24.90;36.30;;;;;;4934939;28;20491;-83
2022/04/25 08:17:59;;;;;;;;;;;25.00;37.10;;;;;;4932606;28;20425;-74
2022/04/25 08:20:34;;;;;;;;;;;25.10;36.90;;;;;;4933490;28;19966;-75
2022/04/25 08:23:03;;;;;;;;;;;25.10;36.90;;;;;;4916086;28;19945;-80
2022/04/25 08:25:30;;;;;;;;;;;25.20;37.30;;;;;;4928910;28;20086;-68
2022/04/25 08:27:58;;;;;;;;;;;25.30;36.70;;;;;;4930864;28;19934;-73
2022/04/25 08:30:25;;;;;;;;;;;25.40;36.70;;;;;;4929298;28;20746;-70
2022/04/25 08:32:55;;;;;;;;;;;25.40;36.60;;;;;;4936660;28;20000;-66
2022/04/25 08:35:22;;;;;;;;;;;25.40;36.70;;;;;;4934154;28;20391;-69
2022/04/25 08:37:49;;;;;;;;;;;25.50;36.60;;;;;;4932716;28;19937;-71
2022/04/25 08:40:17;;;;;;;;;;;25.50;36.70;;;;;;4934431;28;19938;-71
2022/04/25 08:42:44;;;;;;;;;;;25.60;36.80;;;;;;4936386;28;19997;-72
2022/04/25 08:45:12;;;;;;;;;;;25.60;36.90;;;;;;4930157;28;19930;-74
2022/04/25 08:47:44;;;;;;;;;;;25.70;37.00;;;;;;4933521;28;19934;-69
2022/04/25 08:50:11;;;;;;;;;;;25.70;36.50;;;;;;4935742;28;19962;-70
2022/04/25 08:52:40;;;;;;;;;;;25.70;36.10;;;;;;4930273;28;19974;-74
2022/04/25 08:55:07;;;;;;;;;;;25.70;36.10;;;;;;4939614;28;19981;-68
2022/04/25 08:57:38;;;;;;;;;;;25.70;36.10;;;;;;4930390;28;19930;-67
2022/04/25 09:00:06;;;;;;;;;;;25.80;36.20;;;;;;4946727;28;19927;-68
2022/04/25 09:02:34;;;;;;;;;;;25.80;35.90;;;;;;4930206;28;20375;-67
2022/04/25 09:05:02;;;;;;;;;;;25.80;36.10;;;;;;4928547;28;20379;-66
2022/04/25 09:07:29;;;;;;;;;;;25.80;35.90;;;;;;4929359;28;20354;-68
2022/04/25 09:09:56;;;;;;;;;;;25.80;35.70;;;;;;4939962;28;20023;-67
2022/04/25 09:12:23;;;;;;;;;;;25.90;35.60;;;;;;4938640;28;19927;-67
2022/04/25 09:14:50;;;;;;;;;;;25.90;35.30;;;;;;4938325;28;19974;-68
2022/04/25 09:17:39;;;;;;;;;;;25.90;35.20;;;;;;4930585;28;20068;-70
2022/04/25 09:20:07;;;;;;;;;;;26.00;35.40;;;;;;4929038;28;20729;-73
2022/04/25 09:22:36;;;;;;;;;;;26.00;35.30;;;;;;4919812;28;19965;-71
2022/04/25 09:25:05;;;;;;;;;;;26.00;35.20;;;;;;4921151;28;20025;-68
2022/04/25 09:28:12;;;;;;;;;;;26.00;35.20;;;;;;4921002;28;19934;-68
2022/04/25 09:30:54;;;;;;;;;;;26.00;35.40;;;;;;4912976;28;20359;-72
2022/04/25 09:33:21;;;;;;;;;;;26.00;35.10;;;;;;4921869;28;19945;-68
2022/04/25 09:35:58;;;;;;;;;;;26.00;35.00;;;;;;4913748;28;22130;-69
2022/04/25 09:41:47;;;;;;;;;;;26.10;34.80;;;;;;4918473;28;19933;-68
2022/04/25 09:44:14;;;;;;;;;;;26.00;35.10;;;;;;4921377;28;19956;-72
2022/04/25 09:46:47;;;;;;;;;;;26.10;35.30;;;;;;4920958;28;19961;-72
2022/04/25 09:49:19;;;;;;;;;;;26.10;35.20;;;;;;4916197;28;20383;-73
2022/04/25 09:52:02;;;;;;;;;;;26.10;35.00;;;;;;4923081;28;19935;-72
2022/04/25 09:54:30;;;;;;;;;;;26.20;34.90;;;;;;4926633;28;20016;-74
2022/04/25 09:56:57;;;;;;;;;;;26.20;34.70;;;;;;4928413;28;20013;-69
2022/04/25 09:59:25;;;;;;;;;;;26.20;34.70;;;;;;4934048;28;19934;-72
2022/04/25 10:02:04;;;;;;;;;;;26.20;34.50;;;;;;4938424;28;20030;-72
2022/04/25 10:04:31;;;;;;;;;;;26.20;34.50;;;;;;4925820;28;19927;-73
2022/04/25 10:07:00;;;;;;;;;;;26.20;34.40;;;;;;4938413;28;20021;-71
2022/04/25 10:09:28;;;;;;;;;;;26.30;34.30;;;;;;4939344;28;19996;-71
2022/04/25 10:11:58;;;;;;;;;;;26.30;34.20;;;;;;4940336;28;19981;-71
2022/04/25 10:14:26;;;;;;;;;;;26.30;34.10;;;;;;4947260;28;19926;-71
2022/04/25 10:16:57;;;;;;;;;;;26.20;34.10;;;;;;4941498;28;19939;-72
2022/04/25 10:19:24;;;;;;;;;;;26.30;34.10;;;;;;4934184;28;20454;-70
2022/04/25 10:21:52;;;;;;;;;;;26.30;34.00;;;;;;4940182;28;19931;-74
2022/04/25 10:24:20;;;;;;;;;;;26.30;33.90;;;;;;4935877;28;19981;-69
2022/04/25 10:26:47;;;;;;;;;;;26.30;33.90;;;;;;4945248;28;19966;-66
2022/04/25 10:29:17;;;;;;;;;;;26.30;33.90;;;;;;4939385;28;19970;-72
2022/04/25 10:31:47;;;;;;;;;;;26.30;34.30;;;;;;4941369;29;19926;-78
2022/04/25 10:34:14;;;;;;;;;;;26.30;34.30;;;;;;4957380;28;19927;-78
2022/04/25 10:36:46;;;;;;;;;;;26.30;32.70;;;;;;4933967;28;19970;-74
2022/04/25 10:39:14;;;;;;;;;;;26.20;32.30;;;;;;4934592;28;19931;-74
2022/04/25 10:44:50;;;;;;;;;;;25.90;30.80;;;;;;4920029;28;19945;-75
2022/04/25 10:47:18;;;;;;;;;;;25.70;31.20;;;;;;4916310;28;19935;-74
2022/04/25 10:49:47;;;;;;;;;;;25.50;31.40;;;;;;4929457;28;19934;-75
2022/04/25 10:52:43;;;;;;;;;;;25.50;31.80;;;;;;4927254;28;19930;-78
2022/04/25 10:55:14;;;;;;;;;;;25.40;32.00;;;;;;4937949;28;19992;-74
2022/04/25 10:58:01;;;;;;;;;;;25.30;31.50;;;;;;4932752;28;19974;-71
2022/04/25 11:00:45;;;;;;;;;;;25.20;32.10;;;;;;4932961;28;20387;-69
2022/04/25 11:03:28;;;;;;;;;;;25.10;31.70;;;;;;4939028;28;19931;-71
2022/04/25 11:06:03;;;;;;;;;;;25.10;32.20;;;;;;4935379;28;19963;-70
2022/04/25 11:08:32;;;;;;;;;;;25.10;32.80;;;;;;4933119;28;19931;-74
2022/04/25 11:11:08;;;;;;;;;;;25.10;33.00;;;;;;4937075;28;19935;-70
2022/04/25 11:14:01;;;;;;;;;;;25.10;32.10;;;;;;4933284;28;19938;-67
2022/04/25 11:16:28;;;;;;;;;;;25.10;31.90;;;;;;4937371;28;19931;-73
2022/04/25 11:19:16;;;;;;;;;;;25.10;32.10;;;;;;4924897;28;19995;-72
2022/04/25 11:21:46;;;;;;;;;;;25.10;32.80;;;;;;4926650;28;19969;-75
2022/04/25 11:24:28;;;;;;;;;;;25.10;33.20;;;;;;4924785;28;19935;-72
2022/04/25 11:26:58;;;;;;;;;;;25.20;33.70;;;;;;4931187;28;19984;-75
2022/04/25 11:29:25;;;;;;;;;;;25.20;33.90;;;;;;4937898;28;19930;-79
2022/04/25 11:32:12;;;;;;;;;;;25.30;33.00;;;;;;4937326;28;19927;-71
2022/04/25 11:34:42;;;;;;;;;;;25.30;32.60;;;;;;4936340;28;20407;-73
2022/04/25 11:37:12;;;;;;;;;;;25.40;33.20;;;;;;4933681;28;19980;-70
2022/04/25 11:39:52;;;;;;;;;;;25.40;33.90;;;;;;4939797;28;19977;-73
2022/04/25 11:42:19;;;;;;;;;;;25.50;34.30;;;;;;4948240;28;20436;-76
2022/04/25 11:44:46;;;;;;;;;;;25.60;34.30;;;;;;4945009;28;19972;-74
2022/04/25 11:47:13;;;;;;;;;;;25.60;34.80;;;;;;4934499;28;20392;-74
2022/04/25 11:49:41;;;;;;;;;;;25.70;34.60;;;;;;4936095;28;19931;-73
2022/04/25 11:52:13;;;;;;;;;;;25.70;34.80;;;;;;4937050;28;20345;-76
2022/04/25 11:54:40;;;;;;;;;;;25.80;35.30;;;;;;4927921;28;19992;-76
2022/04/25 11:57:07;;;;;;;;;;;25.90;35.30;;;;;;4945567;28;19984;-74
2022/04/25 11:59:34;;;;;;;;;;;26.00;35.10;;;;;;4939138;28;19997;-73
2022/04/25 12:02:02;;;;;;;;;;;26.00;34.70;;;;;;4951638;28;19958;-72
2022/04/25 12:04:30;;;;;;;;;;;26.00;34.50;;;;;;4933499;28;19934;-72
2022/04/25 12:06:59;;;;;;;;;;;26.10;34.40;;;;;;4937540;28;20326;-78
2022/04/25 12:15:34;;;;;;;;;;;26.20;34.50;;;;;;4938362;28;19934;-68
2022/04/25 12:18:13;;;;;;;;;;;26.20;34.40;;;;;;4934405;28;19938;-72
2022/04/25 12:20:40;;;;;;;;;;;26.30;34.40;;;;;;4937429;28;20394;-79
2022/04/25 12:23:07;;;;;;;;;;;26.30;34.30;;;;;;4938352;28;19933;-73
2022/04/25 12:25:39;;;;;;;;;;;26.40;34.10;;;;;;4928774;28;19930;-76
2022/04/25 12:28:18;;;;;;;;;;;26.40;34.00;;;;;;4933435;28;19974;-73
2022/04/25 12:30:50;;;;;;;;;;;26.40;33.90;;;;;;4938443;28;20377;-76
2022/04/25 12:33:19;;;;;;;;;;;26.50;33.90;;;;;;4942176;29;19938;-68
2022/04/25 12:35:47;;;;;;;;;;;26.50;33.70;;;;;;4938406;28;19956;-71
2022/04/25 12:38:35;;;;;;;;;;;26.50;33.70;;;;;;4932615;28;19972;-71
2022/04/25 12:41:02;;;;;;;;;;;26.60;33.60;;;;;;4933801;28;19931;-70
2022/04/25 12:43:37;;;;;;;;;;;26.60;33.50;;;;;;4935979;28;20398;-75
2022/04/25 12:46:06;;;;;;;;;;;26.60;33.50;;;;;;4938029;29;19970;-77
2022/04/25 12:48:54;;;;;;;;;;;26.60;33.50;;;;;;4943492;28;19935;-74
2022/04/25 12:51:31;;;;;;;;;;;26.60;33.50;;;;;;4940118;28;19986;-77
2022/04/25 12:53:58;;;;;;;;;;;26.60;33.40;;;;;;4936749;28;19927;-75
2022/04/25 12:56:26;;;;;;;;;;;26.70;33.50;;;;;;4933697;28;19938;-73
2022/04/25 12:58:54;;;;;;;;;;;26.70;33.50;;;;;;4929389;28;20465;-74
2022/04/25 13:01:28;;;;;;;;;;;26.70;33.30;;;;;;4936712;28;20128;-70
2022/04/25 13:04:06;;;;;;;;;;;26.70;33.30;;;;;;4926489;28;19984;-72
2022/04/25 13:06:35;;;;;;;;;;;26.70;33.30;;;;;;4930190;28;20298;-79
2022/04/25 13:09:03;;;;;;;;;;;26.70;33.20;;;;;;4927667;28;19927;-76
2022/04/25 13:11:50;;;;;;;;;;;26.80;33.20;;;;;;4937192;28;19944;-73
2022/04/25 13:14:17;;;;;;;;;;;26.80;33.20;;;;;;4937561;28;19992;-73
2022/04/25 13:16:43;;;;;;;;;;;26.80;33.20;;;;;;4942999;28;19930;-70
2022/04/25 13:19:11;;;;;;;;;;;26.80;33.00;;;;;;4943613;28;19938;-81
2022/04/25 13:21:41;;;;;;;;;;;26.90;33.10;;;;;;4938269;28;19988;-76
2022/04/25 13:24:08;;;;;;;;;;;26.90;33.20;;;;;;4938661;28;19926;-71
2022/04/25 13:26:35;;;;;;;;;;;26.90;33.10;;;;;;4950531;28;19953;-73
2022/04/25 13:29:02;;;;;;;;;;;26.90;33.00;;;;;;4948782;28;20304;-76
2022/04/25 13:31:31;;;;;;;;;;;26.90;33.00;;;;;;4937950;28;20076;-70
2022/04/25 13:33:59;;;;;;;;;;;26.90;33.10;;;;;;4949962;28;19930;-71
2022/04/25 13:36:26;;;;;;;;;;;27.00;33.00;;;;;;4940342;28;20883;-76
2022/04/25 13:38:53;;;;;;;;;;;27.00;32.90;;;;;;4950123;28;19970;-70
2022/04/25 13:41:20;;;;;;;;;;;27.00;32.90;;;;;;4939640;28;19934;-75
2022/04/25 13:43:51;;;;;;;;;;;27.00;32.90;;;;;;4955279;28;19975;-73
2022/04/25 13:46:18;;;;;;;;;;;27.00;32.90;;;;;;4929044;28;20405;-79
2022/04/25 13:48:46;;;;;;;;;;;27.10;32.90;;;;;;4944783;28;19926;-74
2022/04/25 13:51:14;;;;;;;;;;;27.10;32.90;;;;;;4942219;28;19934;-77
2022/04/25 13:53:42;;;;;;;;;;;27.10;32.90;;;;;;4943937;28;19934;-75
2022/04/25 13:56:09;;;;;;;;;;;27.20;32.80;;;;;;4948434;28;19927;-73
2022/04/25 13:58:37;;;;;;;;;;;27.20;32.70;;;;;;4939038;28;19984;-76
2022/04/25 14:01:05;;;;;;;;;;;27.20;32.80;;;;;;4935823;28;19973;-72
2022/04/25 14:03:33;;;;;;;;;;;27.20;32.80;;;;;;4940328;28;20398;-72
2022/04/25 14:06:00;;;;;;;;;;;27.20;32.80;;;;;;4932486;28;20010;-68
2022/04/25 14:08:27;;;;;;;;;;;27.20;32.80;;;;;;4932662;29;20092;-71
2022/04/25 14:10:55;;;;;;;;;;;27.20;33.00;;;;;;4937313;28;19974;-70
2022/04/25 14:13:24;;;;;;;;;;;27.20;33.00;;;;;;4934888;28;20387;-73
2022/04/25 14:15:51;;;;;;;;;;;27.20;33.50;;;;;;4937441;28;19939;-73
2022/04/25 14:18:20;;;;;;;;;;;27.20;32.90;;;;;;4932542;28;19946;-73
2022/04/25 14:20:47;;;;;;;;;;;27.20;32.90;;;;;;4935358;28;20437;-73
2022/04/25 14:23:14;;;;;;;;;;;27.20;32.90;;;;;;4935860;28;20341;-75
2022/04/25 14:25:41;;;;;;;;;;;27.20;32.90;;;;;;4935997;28;19974;-74
2022/04/25 14:28:10;;;;;;;;;;;27.30;33.00;;;;;;4935706;28;19994;-73
2022/04/25 14:30:37;;;;;;;;;;;27.20;32.90;;;;;;4935934;29;20339;-68
2022/04/25 14:33:04;;;;;;;;;;;27.30;32.70;;;;;;4929522;28;19942;-73
2022/04/25 14:35:31;;;;;;;;;;;27.30;32.80;;;;;;4934778;29;19930;-70
2022/04/25 14:37:59;;;;;;;;;;;27.20;32.60;;;;;;4938377;28;19980;-71
2022/04/25 14:40:26;;;;;;;;;;;27.20;32.60;;;;;;4938473;28;20554;-69
2022/04/25 14:42:53;;;;;;;;;;;27.20;32.60;;;;;;4945945;28;20437;-77
2022/04/25 14:45:21;;;;;;;;;;;27.10;32.50;;;;;;4944871;29;19981;-73
2022/04/25 14:47:47;;;;;;;;;;;27.10;32.40;;;;;;4945687;29;19978;-73
2022/04/25 14:55:50;;;;;;;;;;;27.00;32.80;;;;;;4935714;29;19934;-76
2022/04/25 14:58:17;;;;;;;;;;;26.90;32.80;;;;;;4946259;28;19939;-72
2022/04/25 15:00:45;;;;;;;;;;;26.90;32.90;;;;;;4945173;29;20045;-71
2022/04/25 15:03:12;;;;;;;;;;;26.80;33.20;;;;;;4939989;29;19930;-71
2022/04/25 15:05:42;;;;;;;;;;;26.80;33.20;;;;;;4937962;29;19926;-71
2022/04/25 15:08:09;;;;;;;;;;;26.80;33.40;;;;;;4942982;28;19930;-71